sensor_id;sensor_type;location;lat;lon;timestamp;temperature;humidity
8269;DHT22;4174;48.304;16.364;2023-09-30T00:02:06;16.20;99.90
8269;DHT22;4174;48.304;16.364;2023-09-30T00:08:10;16.20;99.90
8269;DHT22;4174;48.304;16.364;2023-09-30T00:14:14;16.30;99.90
8269;DHT22;4174;48.304;16.364;2023-09-30T00:20:17;16.20;99.90
8269;DHT22;4174;48.304;16.364;2023-09-30T00:26:22;16.30;99.90
8269;DHT22;4174;48.304;16.364;2023-09-30T00:32:27;16.30;99.90
8269;DHT22;4174;48.304;16.364;2023-09-30T00:38:30;16.30;99.90
8269;DHT22;4174;48.304;16.364;2023-09-30T00:44:34;16.40;99.90
8269;DHT22;4174;48.304;16.364;2023-09-30T00:50:37;16.40;99.90
8269;DHT22;4174;48.304;16.364;2023-09-30T00:56:43;16.40;99.90
8269;DHT22;4174;48.304;16.364;2023-09-30T01:02:46;16.40;99.90
8269;DHT22;4174;48.304;16.364;2023-09-30T01:08:50;16.60;99.90
8269;DHT22;4174;48.304;16.364;2023-09-30T01:14:58;16.60;99.90
8269;DHT22;4174;48.304;16.364;2023-09-30T01:21:02;16.70;99.90
8269;DHT22;4174;48.304;16.364;2023-09-30T01:27:05;16.70;99.90
8269;DHT22;4174;48.304;16.364;2023-09-30T01:33:09;16.80;99.90
8269;DHT22;4174;48.304;16.364;2023-09-30T01:39:13;16.80;99.90
8269;DHT22;4174;48.304;16.364;2023-09-30T01:45:16;17.00;99.90
8269;DHT22;4174;48.304;16.364;2023-09-30T01:51:20;17.00;99.90
8269;DHT22;4174;48.304;16.364;2023-09-30T01:57:24;17.00;99.90
8269;DHT22;4174;48.304;16.364;2023-09-30T02:03:28;17.00;99.90
8269;DHT22;4174;48.304;16.364;2023-09-30T02:09:32;17.00;99.90
8269;DHT22;4174;48.304;16.364;2023-09-30T02:15:39;17.00;99.90
8269;DHT22;4174;48.304;16.364;2023-09-30T02:21:38;17.20;99.90
8269;DHT22;4174;48.304;16.364;2023-09-30T02:27:41;17.30;99.90
8269;DHT22;4174;48.304;16.364;2023-09-30T02:33:44;17.50;99.90
8269;DHT22;4174;48.304;16.364;2023-09-30T02:39:48;17.60;99.90
8269;DHT22;4174;48.304;16.364;2023-09-30T02:45:52;17.70;99.90
8269;DHT22;4174;48.304;16.364;2023-09-30T02:51:56;18.10;99.90
8269;DHT22;4174;48.304;16.364;2023-09-30T02:58:01;18.20;99.90
8269;DHT22;4174;48.304;16.364;2023-09-30T03:04:05;18.20;99.90
8269;DHT22;4174;48.304;16.364;2023-09-30T03:10:09;18.40;99.90
8269;DHT22;4174;48.304;16.364;2023-09-30T03:16:13;18.70;99.90
8269;DHT22;4174;48.304;16.364;2023-09-30T03:22:17;18.90;99.90
8269;DHT22;4174;48.304;16.364;2023-09-30T03:28:20;19.00;99.90
8269;DHT22;4174;48.304;16.364;2023-09-30T03:34:25;19.20;99.90
8269;DHT22;4174;48.304;16.364;2023-09-30T03:40:29;19.40;99.90
8269;DHT22;4174;48.304;16.364;2023-09-30T03:46:33;19.40;99.90
8269;DHT22;4174;48.304;16.364;2023-09-30T03:52:37;19.40;99.90
8269;DHT22;4174;48.304;16.364;2023-09-30T03:58:41;19.30;99.90
8269;DHT22;4174;48.304;16.364;2023-09-30T04:04:43;19.40;99.90
8269;DHT22;4174;48.304;16.364;2023-09-30T04:10:51;19.60;99.90
8269;DHT22;4174;48.304;16.364;2023-09-30T04:16:55;19.60;99.90
8269;DHT22;4174;48.304;16.364;2023-09-30T04:23:00;19.40;99.90
8269;DHT22;4174;48.304;16.364;2023-09-30T04:29:04;19.40;99.90
8269;DHT22;4174;48.304;16.364;2023-09-30T04:35:09;19.00;99.90
8269;DHT22;4174;48.304;16.364;2023-09-30T04:41:13;18.90;99.90
8269;DHT22;4174;48.304;16.364;2023-09-30T04:47:16;19.00;99.90
8269;DHT22;4174;48.304;16.364;2023-09-30T04:53:21;18.80;99.90
8269;DHT22;4174;48.304;16.364;2023-09-30T04:59:25;18.90;99.90
8269;DHT22;4174;48.304;16.364;2023-09-30T05:05:29;18.90;99.90
8269;DHT22;4174;48.304;16.364;2023-09-30T05:11:32;19.00;99.90
8269;DHT22;4174;48.304;16.364;2023-09-30T05:17:37;19.00;99.90
8269;DHT22;4174;48.304;16.364;2023-09-30T05:23:40;19.00;99.90
8269;DHT22;4174;48.304;16.364;2023-09-30T05:29:44;19.10;99.90
8269;DHT22;4174;48.304;16.364;2023-09-30T05:35:48;19.20;99.90
8269;DHT22;4174;48.304;16.364;2023-09-30T05:41:51;19.30;99.90
8269;DHT22;4174;48.304;16.364;2023-09-30T05:47:56;19.40;99.90
8269;DHT22;4174;48.304;16.364;2023-09-30T05:54:01;19.40;99.90
8269;DHT22;4174;48.304;16.364;2023-09-30T06:00:06;19.40;99.90
8269;DHT22;4174;48.304;16.364;2023-09-30T06:06:11;19.50;99.90
8269;DHT22;4174;48.304;16.364;2023-09-30T06:12:13;19.70;99.90
8269;DHT22;4174;48.304;16.364;2023-09-30T06:18:18;19.90;99.90
8269;DHT22;4174;48.304;16.364;2023-09-30T06:24:21;19.90;99.90
8269;DHT22;4174;48.304;16.364;2023-09-30T06:30:25;19.70;99.90
8269;DHT22;4174;48.304;16.364;2023-09-30T06:36:31;20.20;99.90
8269;DHT22;4174;48.304;16.364;2023-09-30T06:42:36;20.30;99.90
8269;DHT22;4174;48.304;16.364;2023-09-30T06:48:39;20.40;99.90
8269;DHT22;4174;48.304;16.364;2023-09-30T06:54:44;21.50;99.90
8269;DHT22;4174;48.304;16.364;2023-09-30T07:00:48;21.50;99.90
8269;DHT22;4174;48.304;16.364;2023-09-30T07:06:52;22.30;99.90
8269;DHT22;4174;48.304;16.364;2023-09-30T07:12:55;22.70;99.90
8269;DHT22;4174;48.304;16.364;2023-09-30T07:18:59;22.70;99.90
8269;DHT22;4174;48.304;16.364;2023-09-30T07:25:03;22.80;99.90
8269;DHT22;4174;48.304;16.364;2023-09-30T07:31:07;22.40;99.90
8269;DHT22;4174;48.304;16.364;2023-09-30T07:37:11;22.20;99.90
8269;DHT22;4174;48.304;16.364;2023-09-30T07:43:14;22.00;99.90
8269;DHT22;4174;48.304;16.364;2023-09-30T07:49:17;21.70;99.90
8269;DHT22;4174;48.304;16.364;2023-09-30T07:55:20;21.80;99.90
8269;DHT22;4174;48.304;16.364;2023-09-30T08:01:24;22.90;99.90
8269;DHT22;4174;48.304;16.364;2023-09-30T08:07:28;23.50;99.90
8269;DHT22;4174;48.304;16.364;2023-09-30T08:13:32;24.10;99.90
8269;DHT22;4174;48.304;16.364;2023-09-30T08:19:35;24.20;99.90
8269;DHT22;4174;48.304;16.364;2023-09-30T08:25:38;23.80;99.90
8269;DHT22;4174;48.304;16.364;2023-09-30T08:31:42;23.60;99.90
8269;DHT22;4174;48.304;16.364;2023-09-30T08:37:47;24.30;99.90
8269;DHT22;4174;48.304;16.364;2023-09-30T08:43:50;25.90;99.90
8269;DHT22;4174;48.304;16.364;2023-09-30T08:49:54;26.60;99.90
8269;DHT22;4174;48.304;16.364;2023-09-30T08:55:57;26.90;99.90
8269;DHT22;4174;48.304;16.364;2023-09-30T09:02:01;26.80;99.90
8269;DHT22;4174;48.304;16.364;2023-09-30T09:08:05;25.10;99.90
8269;DHT22;4174;48.304;16.364;2023-09-30T09:14:09;25.10;99.90
8269;DHT22;4174;48.304;16.364;2023-09-30T09:20:17;24.80;99.90
8269;DHT22;4174;48.304;16.364;2023-09-30T09:26:26;24.70;99.90
8269;DHT22;4174;48.304;16.364;2023-09-30T09:32:30;24.90;99.90
8269;DHT22;4174;48.304;16.364;2023-09-30T09:38:49;24.80;99.90
8269;DHT22;4174;48.304;16.364;2023-09-30T09:44:54;24.50;99.90
8269;DHT22;4174;48.304;16.364;2023-09-30T09:50:57;24.40;99.90
8269;DHT22;4174;48.304;16.364;2023-09-30T09:57:01;24.20;99.90
8269;DHT22;4174;48.304;16.364;2023-09-30T10:03:04;24.00;99.90
8269;DHT22;4174;48.304;16.364;2023-09-30T10:09:09;24.20;99.90
8269;DHT22;4174;48.304;16.364;2023-09-30T10:22:19;24.30;99.90
8269;DHT22;4174;48.304;16.364;2023-09-30T10:28:35;24.80;99.90
8269;DHT22;4174;48.304;16.364;2023-09-30T10:34:37;24.50;99.90
8269;DHT22;4174;48.304;16.364;2023-09-30T10:40:40;24.80;99.90
8269;DHT22;4174;48.304;16.364;2023-09-30T10:46:45;26.40;99.90
8269;DHT22;4174;48.304;16.364;2023-09-30T10:52:48;26.40;99.90
8269;DHT22;4174;48.304;16.364;2023-09-30T10:58:52;26.90;99.90
8269;DHT22;4174;48.304;16.364;2023-09-30T11:04:54;26.50;99.90
8269;DHT22;4174;48.304;16.364;2023-09-30T11:10:57;26.40;99.90
8269;DHT22;4174;48.304;16.364;2023-09-30T11:17:02;26.60;99.90
8269;DHT22;4174;48.304;16.364;2023-09-30T11:23:05;26.40;99.90
8269;DHT22;4174;48.304;16.364;2023-09-30T11:29:09;26.00;99.90
8269;DHT22;4174;48.304;16.364;2023-09-30T11:35:21;26.30;99.90
8269;DHT22;4174;48.304;16.364;2023-09-30T11:41:19;25.80;99.90
8269;DHT22;4174;48.304;16.364;2023-09-30T11:47:28;25.30;99.90
8269;DHT22;4174;48.304;16.364;2023-09-30T11:53:34;24.90;99.90
8269;DHT22;4174;48.304;16.364;2023-09-30T11:59:36;24.90;99.90
8269;DHT22;4174;48.304;16.364;2023-09-30T12:05:39;25.10;99.90
8269;DHT22;4174;48.304;16.364;2023-09-30T12:11:43;25.40;99.90
8269;DHT22;4174;48.304;16.364;2023-09-30T12:17:46;26.00;99.90
8269;DHT22;4174;48.304;16.364;2023-09-30T12:23:50;26.30;99.90
8269;DHT22;4174;48.304;16.364;2023-09-30T12:29:54;26.40;99.90
8269;DHT22;4174;48.304;16.364;2023-09-30T12:35:58;25.90;99.90
8269;DHT22;4174;48.304;16.364;2023-09-30T12:42:01;25.20;99.90
8269;DHT22;4174;48.304;16.364;2023-09-30T12:48:04;24.90;99.90
8269;DHT22;4174;48.304;16.364;2023-09-30T12:54:08;24.80;99.90
8269;DHT22;4174;48.304;16.364;2023-09-30T13:00:13;24.60;99.90
8269;DHT22;4174;48.304;16.364;2023-09-30T13:06:18;24.60;99.90
8269;DHT22;4174;48.304;16.364;2023-09-30T13:12:20;24.70;99.90
8269;DHT22;4174;48.304;16.364;2023-09-30T13:18:24;24.90;99.90
8269;DHT22;4174;48.304;16.364;2023-09-30T13:24:29;25.10;99.90
8269;DHT22;4174;48.304;16.364;2023-09-30T13:30:32;24.70;99.90
8269;DHT22;4174;48.304;16.364;2023-09-30T13:36:36;24.90;99.90
8269;DHT22;4174;48.304;16.364;2023-09-30T13:42:41;25.00;99.90
8269;DHT22;4174;48.304;16.364;2023-09-30T13:48:46;25.20;99.90
8269;DHT22;4174;48.304;16.364;2023-09-30T13:54:49;25.20;99.90
8269;DHT22;4174;48.304;16.364;2023-09-30T14:00:53;25.30;99.90
8269;DHT22;4174;48.304;16.364;2023-09-30T14:06:56;25.10;99.90
8269;DHT22;4174;48.304;16.364;2023-09-30T14:12:59;25.20;99.90
8269;DHT22;4174;48.304;16.364;2023-09-30T14:19:03;25.10;99.90
8269;DHT22;4174;48.304;16.364;2023-09-30T14:25:08;25.30;99.90
8269;DHT22;4174;48.304;16.364;2023-09-30T14:31:12;25.40;99.90
8269;DHT22;4174;48.304;16.364;2023-09-30T14:37:16;24.80;99.90
8269;DHT22;4174;48.304;16.364;2023-09-30T14:43:20;24.50;99.90
8269;DHT22;4174;48.304;16.364;2023-09-30T14:49:24;24.50;99.90
8269;DHT22;4174;48.304;16.364;2023-09-30T14:55:28;23.90;99.90
8269;DHT22;4174;48.304;16.364;2023-09-30T15:01:32;24.00;99.90
8269;DHT22;4174;48.304;16.364;2023-09-30T15:07:36;24.00;99.90
8269;DHT22;4174;48.304;16.364;2023-09-30T15:13:40;24.10;99.90
8269;DHT22;4174;48.304;16.364;2023-09-30T15:19:43;23.80;99.90
8269;DHT22;4174;48.304;16.364;2023-09-30T15:25:46;23.70;99.90
8269;DHT22;4174;48.304;16.364;2023-09-30T15:31:49;23.70;99.90
8269;DHT22;4174;48.304;16.364;2023-09-30T15:37:53;23.60;99.90
8269;DHT22;4174;48.304;16.364;2023-09-30T15:43:58;23.60;99.90
8269;DHT22;4174;48.304;16.364;2023-09-30T15:50:02;23.50;99.90
8269;DHT22;4174;48.304;16.364;2023-09-30T15:56:06;23.20;99.90
8269;DHT22;4174;48.304;16.364;2023-09-30T16:02:09;23.10;99.90
8269;DHT22;4174;48.304;16.364;2023-09-30T16:08:13;23.10;99.90
8269;DHT22;4174;48.304;16.364;2023-09-30T16:14:16;22.90;99.90
8269;DHT22;4174;48.304;16.364;2023-09-30T16:20:20;22.60;99.90
8269;DHT22;4174;48.304;16.364;2023-09-30T16:26:22;22.30;99.90
8269;DHT22;4174;48.304;16.364;2023-09-30T16:32:26;22.20;99.90
8269;DHT22;4174;48.304;16.364;2023-09-30T16:38:29;21.90;99.90
8269;DHT22;4174;48.304;16.364;2023-09-30T16:44:32;21.80;99.90
8269;DHT22;4174;48.304;16.364;2023-09-30T16:50:36;21.70;99.90
8269;DHT22;4174;48.304;16.364;2023-09-30T16:56:39;21.60;99.90
8269;DHT22;4174;48.304;16.364;2023-09-30T17:02:42;21.50;99.90
8269;DHT22;4174;48.304;16.364;2023-09-30T17:08:45;21.40;99.90
8269;DHT22;4174;48.304;16.364;2023-09-30T17:14:49;21.40;99.90
8269;DHT22;4174;48.304;16.364;2023-09-30T17:20:52;21.40;99.90
8269;DHT22;4174;48.304;16.364;2023-09-30T17:26:56;21.30;99.90
8269;DHT22;4174;48.304;16.364;2023-09-30T17:33:00;20.90;99.90
8269;DHT22;4174;48.304;16.364;2023-09-30T17:39:03;20.90;99.90
8269;DHT22;4174;48.304;16.364;2023-09-30T17:45:09;20.50;99.90
8269;DHT22;4174;48.304;16.364;2023-09-30T17:51:12;20.40;99.90
8269;DHT22;4174;48.304;16.364;2023-09-30T17:57:15;20.30;99.90
8269;DHT22;4174;48.304;16.364;2023-09-30T18:03:18;20.30;99.90
8269;DHT22;4174;48.304;16.364;2023-09-30T18:09:21;20.20;99.90
8269;DHT22;4174;48.304;16.364;2023-09-30T18:15:25;20.20;99.90
8269;DHT22;4174;48.304;16.364;2023-09-30T18:21:28;20.00;99.90
8269;DHT22;4174;48.304;16.364;2023-09-30T18:27:32;19.90;99.90
8269;DHT22;4174;48.304;16.364;2023-09-30T18:33:35;19.80;99.90
8269;DHT22;4174;48.304;16.364;2023-09-30T18:39:38;19.60;99.90
8269;DHT22;4174;48.304;16.364;2023-09-30T18:45:43;19.40;99.90
8269;DHT22;4174;48.304;16.364;2023-09-30T18:51:45;19.20;99.90
8269;DHT22;4174;48.304;16.364;2023-09-30T18:57:49;19.10;99.90
8269;DHT22;4174;48.304;16.364;2023-09-30T19:03:53;18.90;99.90
8269;DHT22;4174;48.304;16.364;2023-09-30T19:09:56;18.80;99.90
8269;DHT22;4174;48.304;16.364;2023-09-30T19:16:01;18.50;99.90
8269;DHT22;4174;48.304;16.364;2023-09-30T19:22:04;18.40;99.90
8269;DHT22;4174;48.304;16.364;2023-09-30T19:28:08;18.40;99.90
8269;DHT22;4174;48.304;16.364;2023-09-30T19:34:13;18.30;99.90
8269;DHT22;4174;48.304;16.364;2023-09-30T19:40:16;18.10;99.90
8269;DHT22;4174;48.304;16.364;2023-09-30T19:46:20;17.90;99.90
8269;DHT22;4174;48.304;16.364;2023-09-30T19:52:23;17.80;99.90
8269;DHT22;4174;48.304;16.364;2023-09-30T19:58:28;17.60;99.90
8269;DHT22;4174;48.304;16.364;2023-09-30T20:04:32;17.50;99.90
8269;DHT22;4174;48.304;16.364;2023-09-30T20:10:36;17.40;99.90
8269;DHT22;4174;48.304;16.364;2023-09-30T20:16:41;17.30;99.90
8269;DHT22;4174;48.304;16.364;2023-09-30T20:22:44;17.30;99.90
8269;DHT22;4174;48.304;16.364;2023-09-30T20:28:47;17.30;99.90
8269;DHT22;4174;48.304;16.364;2023-09-30T20:34:50;17.20;99.90
8269;DHT22;4174;48.304;16.364;2023-09-30T20:40:54;17.20;99.90
8269;DHT22;4174;48.304;16.364;2023-09-30T20:46:58;17.10;99.90
8269;DHT22;4174;48.304;16.364;2023-09-30T20:53:02;17.10;99.90
8269;DHT22;4174;48.304;16.364;2023-09-30T20:59:06;17.10;99.90
8269;DHT22;4174;48.304;16.364;2023-09-30T21:05:09;17.10;99.90
8269;DHT22;4174;48.304;16.364;2023-09-30T21:11:12;17.00;99.90
8269;DHT22;4174;48.304;16.364;2023-09-30T21:17:16;16.90;99.90
8269;DHT22;4174;48.304;16.364;2023-09-30T21:23:20;16.80;99.90
8269;DHT22;4174;48.304;16.364;2023-09-30T21:29:25;16.80;99.90
8269;DHT22;4174;48.304;16.364;2023-09-30T21:35:28;16.70;99.90
8269;DHT22;4174;48.304;16.364;2023-09-30T21:41:32;16.70;99.90
8269;DHT22;4174;48.304;16.364;2023-09-30T21:47:35;16.60;99.90
8269;DHT22;4174;48.304;16.364;2023-09-30T21:53:39;16.50;99.90
8269;DHT22;4174;48.304;16.364;2023-09-30T21:59:43;16.50;99.90
8269;DHT22;4174;48.304;16.364;2023-09-30T22:05:47;16.50;99.90
8269;DHT22;4174;48.304;16.364;2023-09-30T22:11:53;16.40;99.90
8269;DHT22;4174;48.304;16.364;2023-09-30T22:17:56;16.40;99.90
8269;DHT22;4174;48.304;16.364;2023-09-30T22:24:01;16.20;99.90
8269;DHT22;4174;48.304;16.364;2023-09-30T22:30:05;16.20;99.90
8269;DHT22;4174;48.304;16.364;2023-09-30T22:36:08;16.20;99.90
8269;DHT22;4174;48.304;16.364;2023-09-30T22:42:12;16.20;99.90
8269;DHT22;4174;48.304;16.364;2023-09-30T22:48:15;16.20;99.90
8269;DHT22;4174;48.304;16.364;2023-09-30T22:54:19;16.10;99.90
8269;DHT22;4174;48.304;16.364;2023-09-30T23:00:23;16.00;99.90
8269;DHT22;4174;48.304;16.364;2023-09-30T23:06:28;15.90;99.90
8269;DHT22;4174;48.304;16.364;2023-09-30T23:12:31;15.90;99.90
8269;DHT22;4174;48.304;16.364;2023-09-30T23:18:34;15.90;99.90
8269;DHT22;4174;48.304;16.364;2023-09-30T23:24:37;16.00;99.90
8269;DHT22;4174;48.304;16.364;2023-09-30T23:30:41;15.90;99.90
8269;DHT22;4174;48.304;16.364;2023-09-30T23:36:45;15.80;99.90
8269;DHT22;4174;48.304;16.364;2023-09-30T23:42:48;15.80;99.90
8269;DHT22;4174;48.304;16.364;2023-09-30T23:48:50;15.70;99.90
8269;DHT22;4174;48.304;16.364;2023-09-30T23:54:54;15.60;99.90
